Time;durP1;ratioP1;P1;durP2;ratioP2;P2;SDS_P1;SDS_P2;PMS_P1;PMS_P2;Temp;Humidity;BMP_temperature;BMP_pressure;BME280_temperature;BME280_humidity;BME280_pressure;Samples;Min_cycle;Max_cycle;Signal;HPM_P1;HPM_P2
2023/12/28 00:04:07;;;;;;;;;;;;;;;17.41;44.85;99151.41;10331781;28;1901;-77
2023/12/28 00:09:03;;;;;;;;;;;;;;;17.40;45.35;99138.31;10331647;28;765;-77
2023/12/28 00:13:59;;;;;;;;;;;;;;;17.42;44.91;99168.94;10332075;28;852;-77
2023/12/28 00:18:55;;;;;;;;;;;;;;;17.42;45.13;99136.44;10331366;28;759;-77
2023/12/28 00:23:51;;;;;;;;;;;;;;;17.39;45.28;99150.63;10331917;28;1906;-77
2023/12/28 00:28:47;;;;;;;;;;;;;;;17.37;44.95;99157.78;10330907;28;1034;-77
2023/12/28 00:33:43;;;;;;;;;;;;;;;17.43;44.90;99175.03;10332064;28;788;-77
2023/12/28 00:38:39;;;;;;;;;;;;;;;17.34;45.61;99193.94;10329973;28;1434;-77
2023/12/28 00:43:35;;;;;;;;;;;;;;;17.34;45.90;99157.06;10330396;28;1922;-77
2023/12/28 00:48:30;;;;;;;;;;;;;;;17.31;45.60;99185.25;10329087;28;765;-77
2023/12/28 00:53:26;;;;;;;;;;;;;;;17.33;45.65;99186.97;10329866;28;808;-77
2023/12/28 00:58:22;;;;;;;;;;;;;;;17.28;45.57;99182.78;10329871;28;821;-77
2023/12/28 01:03:18;;;;;;;;;;;;;;;17.29;45.60;99187.13;10329624;28;1941;-77
2023/12/28 01:08:14;;;;;;;;;;;;;;;17.26;45.83;99176.72;10329517;28;778;-77
2023/12/28 01:13:10;;;;;;;;;;;;;;;17.31;45.66;99200.19;10329304;28;841;-77
2023/12/28 01:18:06;;;;;;;;;;;;;;;17.27;45.94;99198.66;10329308;28;853;-77
2023/12/28 01:23:02;;;;;;;;;;;;;;;17.25;46.00;99205.78;10328787;28;1953;-77
2023/12/28 01:27:58;;;;;;;;;;;;;;;17.26;46.12;99218.84;10328686;28;904;-77
2023/12/28 01:32:54;;;;;;;;;;;;;;;17.27;45.75;99206.56;10328484;28;805;-77
2023/12/28 01:37:50;;;;;;;;;;;;;;;17.24;45.96;99215.47;10328674;28;1101;-77
2023/12/28 01:42:46;;;;;;;;;;;;;;;17.31;45.61;99244.97;10328604;28;1964;-76
2023/12/28 01:47:42;;;;;;;;;;;;;;;17.23;45.83;99226.06;10327261;28;1008;-76
2023/12/28 01:52:38;;;;;;;;;;;;;;;17.23;46.04;99220.81;10327589;28;858;-77
2023/12/28 01:57:33;;;;;;;;;;;;;;;17.21;46.22;99220.03;10327138;28;845;-77
2023/12/28 02:02:29;;;;;;;;;;;;;;;17.23;45.96;99232.19;10327308;28;874;-77
2023/12/28 02:07:25;;;;;;;;;;;;;;;17.18;46.17;99210.50;10327088;28;1897;-76
2023/12/28 02:12:21;;;;;;;;;;;;;;;17.19;46.22;99233.28;10326995;28;865;-77
2023/12/28 02:17:17;;;;;;;;;;;;;;;17.21;46.16;99225.28;10327408;28;912;-76
2023/12/28 02:22:13;;;;;;;;;;;;;;;17.19;46.47;99235.91;10326540;28;878;-77
2023/12/28 02:27:09;;;;;;;;;;;;;;;17.17;46.27;99250.09;10326992;28;1936;-77
2023/12/28 02:32:05;;;;;;;;;;;;;;;17.15;46.06;99247.50;10325935;28;822;-77
2023/12/28 02:37:00;;;;;;;;;;;;;;;17.16;46.21;99241.34;10325687;28;1431;-77
2023/12/28 02:41:56;;;;;;;;;;;;;;;17.16;46.29;99245.72;10327042;28;894;-76
2023/12/28 02:46:52;;;;;;;;;;;;;;;17.14;46.34;99253.72;10325815;28;1973;-77
2023/12/28 02:51:48;;;;;;;;;;;;;;;17.15;46.04;99244.88;10325720;28;856;-77
2023/12/28 02:56:44;;;;;;;;;;;;;;;17.13;46.29;99251.16;10326246;28;885;-77
2023/12/28 03:01:40;;;;;;;;;;;;;;;17.09;46.45;99243.41;10325558;28;862;-77
2023/12/28 03:06:38;;;;;;;;;;;;;;;17.13;46.48;99248.50;10325956;28;1890;-76
2023/12/28 03:11:34;;;;;;;;;;;;;;;17.10;46.44;99238.97;10325185;28;801;-77
2023/12/28 03:16:30;;;;;;;;;;;;;;;17.10;46.23;99238.97;10325275;28;883;-76
2023/12/28 03:21:25;;;;;;;;;;;;;;;17.12;46.13;99231.88;10325113;28;781;-76
2023/12/28 03:26:21;;;;;;;;;;;;;;;17.13;46.19;99223.03;10325604;28;1945;-77
2023/12/28 03:31:17;;;;;;;;;;;;;;;17.12;46.10;99207.31;10325533;28;892;-76
2023/12/28 03:36:13;;;;;;;;;;;;;;;17.15;46.05;99215.06;10324200;28;1170;-76
2023/12/28 03:41:09;;;;;;;;;;;;;;;17.14;46.00;99216.84;10324737;28;906;-77
2023/12/28 03:46:05;;;;;;;;;;;;;;;17.15;46.26;99215.06;10324598;28;1963;-76
2023/12/28 03:51:01;;;;;;;;;;;;;;;17.16;46.54;99214.13;10324634;28;814;-76
2023/12/28 03:55:56;;;;;;;;;;;;;;;17.17;46.05;99214.06;10325137;28;826;-77
2023/12/28 04:00:52;;;;;;;;;;;;;;;17.15;46.18;99218.53;10323306;28;828;-76
2023/12/28 04:05:48;;;;;;;;;;;;;;;17.16;46.26;99233.44;10324522;28;1902;-76
2023/12/28 04:10:44;;;;;;;;;;;;;;;17.16;46.34;99222.03;10323578;28;858;-76
2023/12/28 04:15:40;;;;;;;;;;;;;;;17.15;46.36;99226.44;10325038;28;873;-77
2023/12/28 04:20:36;;;;;;;;;;;;;;;17.15;46.29;99222.97;10326002;28;834;-76
2023/12/28 04:25:32;;;;;;;;;;;;;;;17.16;46.28;99222.03;10331908;28;1894;-77
2023/12/28 04:30:28;;;;;;;;;;;;;;;17.15;46.40;99221.19;10331246;28;868;-77
2023/12/28 04:35:24;;;;;;;;;;;;;;;17.14;46.34;99208.94;10330695;28;1049;-76
2023/12/28 04:40:20;;;;;;;;;;;;;;;17.15;46.17;99213.28;10330282;28;739;-76
2023/12/28 04:45:16;;;;;;;;;;;;;;;17.17;46.20;99208.78;10330375;28;1906;-76
2023/12/28 04:50:12;;;;;;;;;;;;;;;17.19;46.20;99196.41;10330295;28;897;-76
2023/12/28 04:55:08;;;;;;;;;;;;;;;17.23;46.12;99205.00;10330094;28;754;-76
2023/12/28 05:00:04;;;;;;;;;;;;;;;17.24;46.17;99210.22;10329906;28;873;-76
2023/12/28 05:05:00;;;;;;;;;;;;;;;17.27;46.10;99194.25;10330223;28;1965;-77
2023/12/28 05:09:56;;;;;;;;;;;;;;;17.29;45.84;99217.84;10329495;28;909;-77
2023/12/28 05:14:51;;;;;;;;;;;;;;;17.30;46.01;99220.44;10329412;28;921;-76
2023/12/28 05:19:47;;;;;;;;;;;;;;;17.39;46.03;99237.56;10329178;28;845;-76
2023/12/28 05:24:43;;;;;;;;;;;;;;;17.44;46.00;99232.91;10328831;28;1947;-77
2023/12/28 05:29:39;;;;;;;;;;;;;;;17.49;46.00;99251.13;10329260;28;881;-76
2023/12/28 05:34:35;;;;;;;;;;;;;;;17.48;45.98;99241.53;10327836;28;870;-74
2023/12/28 05:39:31;;;;;;;;;;;;;;;17.46;46.15;99251.28;10328042;28;1628;-76
2023/12/28 05:44:27;;;;;;;;;;;;;;;17.51;45.89;99262.44;10327993;28;1976;-75
2023/12/28 05:49:25;;;;;;;;;;;;;;;17.57;46.12;99259.50;10328385;28;1099;-81
2023/12/28 05:54:20;;;;;;;;;;;;;;;17.57;46.15;99267.41;10327859;28;912;-77
2023/12/28 05:59:17;;;;;;;;;;;;;;;17.59;46.25;99256.81;10327074;28;963;-76
2023/12/28 06:04:13;;;;;;;;;;;;;;;17.59;46.20;99262.91;10327250;28;1910;-76
2023/12/28 06:09:09;;;;;;;;;;;;;;;17.53;46.51;99264.09;10327117;28;769;-76
2023/12/28 06:14:05;;;;;;;;;;;;;;;17.53;46.52;99282.53;10327828;28;838;-76
2023/12/28 06:19:01;;;;;;;;;;;;;;;17.58;46.40;99297.25;10327373;28;803;-76
2023/12/28 06:23:57;;;;;;;;;;;;;;;17.56;46.40;99294.69;10326509;28;1894;-76
2023/12/28 06:28:52;;;;;;;;;;;;;;;17.58;46.40;99295.47;10327062;28;775;-76
2023/12/28 06:33:48;;;;;;;;;;;;;;;17.54;46.52;99301.81;10326261;28;814;-76
2023/12/28 06:38:44;;;;;;;;;;;;;;;17.47;46.41;99305.69;10326259;28;1508;-83
2023/12/28 06:43:40;;;;;;;;;;;;;;;17.39;46.69;99299.94;10324415;28;1902;-76
2023/12/28 06:48:37;;;;;;;;;;;;;;;17.42;46.34;99294.50;10325840;28;778;-75
2023/12/28 06:53:33;;;;;;;;;;;;;;;17.40;46.39;99293.75;10325682;28;892;-77
2023/12/28 06:58:29;;;;;;;;;;;;;;;17.44;46.13;99293.50;10325556;28;953;-77
2023/12/28 07:03:25;;;;;;;;;;;;;;;17.48;46.14;99295.06;10324863;28;1941;-77
2023/12/28 07:08:21;;;;;;;;;;;;;;;17.45;46.21;99294.38;10325563;28;806;-77
2023/12/28 07:13:17;;;;;;;;;;;;;;;17.48;45.92;99297.72;10325514;28;917;-80
2023/12/28 07:18:13;;;;;;;;;;;;;;;17.46;46.24;99294.28;10325192;28;913;-76
2023/12/28 07:23:09;;;;;;;;;;;;;;;17.51;46.10;99288.81;10325068;28;1890;-77
2023/12/28 07:28:05;;;;;;;;;;;;;;;17.54;46.05;99307.09;10326114;28;885;-76
2023/12/28 07:33:01;;;;;;;;;;;;;;;17.55;46.11;99318.47;10324910;28;821;-83
2023/12/28 07:37:57;;;;;;;;;;;;;;;17.57;46.23;99322.75;10324953;28;2112;-75
2023/12/28 07:42:53;;;;;;;;;;;;;;;17.64;45.87;99328.59;10324769;28;837;-77
2023/12/28 07:47:48;;;;;;;;;;;;;;;17.59;46.18;99322.69;10324691;28;833;-76
2023/12/28 07:52:45;;;;;;;;;;;;;;;17.61;46.19;99321.69;10324620;28;963;-76
2023/12/28 07:57:41;;;;;;;;;;;;;;;17.61;45.84;99313.78;10329299;28;917;-77
2023/12/28 08:02:37;;;;;;;;;;;;;;;17.58;46.20;99329.75;10332084;28;782;-77
2023/12/28 08:07:32;;;;;;;;;;;;;;;17.62;46.19;99326.00;10332536;28;1890;-76
2023/12/28 08:12:28;;;;;;;;;;;;;;;17.66;45.70;99340.75;10331792;28;878;-76
2023/12/28 08:17:24;;;;;;;;;;;;;;;17.62;45.96;99347.09;10332971;28;837;-71
2023/12/28 08:22:20;;;;;;;;;;;;;;;17.71;45.72;99358.97;10331611;28;884;-71
2023/12/28 08:27:16;;;;;;;;;;;;;;;17.64;45.54;99358.41;10331623;28;1894;-75
2023/12/28 08:32:13;;;;;;;;;;;;;;;17.70;45.23;99363.38;10330923;28;798;-75
2023/12/28 08:37:10;;;;;;;;;;;;;;;17.65;45.60;99359.25;10331322;28;1317;-76
2023/12/28 08:42:06;;;;;;;;;;;;;;;17.66;45.81;99361.84;10331143;28;925;-75
2023/12/28 08:47:02;;;;;;;;;;;;;;;17.64;45.40;99360.22;10331065;28;1918;-75
2023/12/28 08:51:58;;;;;;;;;;;;;;;17.75;45.18;99373.72;10330273;28;929;-75
2023/12/28 08:56:53;;;;;;;;;;;;;;;17.71;45.08;99370.38;10330026;28;794;-75
2023/12/28 09:01:49;;;;;;;;;;;;;;;17.69;45.30;99380.13;10330493;28;878;-75
2023/12/28 09:06:45;;;;;;;;;;;;;;;17.72;44.97;99387.03;10329288;28;1945;-75
2023/12/28 09:11:41;;;;;;;;;;;;;;;17.76;44.95;99391.22;10329496;28;844;-75
2023/12/28 09:16:39;;;;;;;;;;;;;;;17.76;44.73;99388.59;10329381;28;884;-75
2023/12/28 09:21:34;;;;;;;;;;;;;;;17.74;45.08;99395.75;10329049;28;854;-75
2023/12/28 09:26:32;;;;;;;;;;;;;;;17.73;44.68;99397.50;10329432;28;1960;-75
2023/12/28 09:31:28;;;;;;;;;;;;;;;17.74;44.75;99415.03;10328614;28;992;-75
2023/12/28 09:36:23;;;;;;;;;;;;;;;17.72;44.95;99402.84;10329137;28;1153;-75
2023/12/28 09:41:19;;;;;;;;;;;;;;;17.74;44.79;99404.50;10328330;28;794;-75
2023/12/28 09:46:15;;;;;;;;;;;;;;;17.75;44.39;99422.00;10328849;28;1910;-76
2023/12/28 09:51:11;;;;;;;;;;;;;;;17.75;44.88;99413.25;10328679;28;820;-75
2023/12/28 09:56:08;;;;;;;;;;;;;;;17.81;44.50;99422.66;10327667;28;773;-75
2023/12/28 10:01:04;;;;;;;;;;;;;;;17.70;44.92;99412.63;10327742;28;798;-75
2023/12/28 10:05:59;;;;;;;;;;;;;;;17.77;44.79;99408.75;10327870;28;1890;-76
2023/12/28 10:10:55;;;;;;;;;;;;;;;17.82;44.73;99403.31;10327092;28;992;-75
2023/12/28 10:15:51;;;;;;;;;;;;;;;17.72;44.96;99401.06;10327507;28;864;-75
2023/12/28 10:20:47;;;;;;;;;;;;;;;17.75;44.96;99387.72;10327178;28;858;-75
2023/12/28 10:25:43;;;;;;;;;;;;;;;17.77;45.01;99379.75;10326471;28;1897;-76
2023/12/28 10:30:41;;;;;;;;;;;;;;;17.74;44.81;99372.00;10326369;28;773;-75
2023/12/28 10:35:36;;;;;;;;;;;;;;;17.83;44.33;99373.38;10326187;28;1271;-75
2023/12/28 10:40:32;;;;;;;;;;;;;;;17.75;44.67;99371.91;10326743;28;798;-75
2023/12/28 10:45:28;;;;;;;;;;;;;;;17.81;44.55;99373.44;10325891;28;1910;-75
2023/12/28 10:50:24;;;;;;;;;;;;;;;17.82;44.53;99363.75;10325728;28;852;-72
2023/12/28 10:55:20;;;;;;;;;;;;;;;17.78;44.41;99363.00;10326519;28;871;-75
2023/12/28 11:00:17;;;;;;;;;;;;;;;17.81;44.54;99364.66;10325575;28;787;-76
2023/12/28 11:05:13;;;;;;;;;;;;;;;17.81;44.46;99351.50;10325453;28;1949;-76
2023/12/28 11:10:10;;;;;;;;;;;;;;;17.88;44.54;99350.25;10325985;28;1018;-75
2023/12/28 11:15:06;;;;;;;;;;;;;;;17.87;44.17;99356.47;10325218;28;904;-75
2023/12/28 11:20:04;;;;;;;;;;;;;;;17.90;44.39;99346.63;10325209;28;1676;-76
2023/12/28 11:25:00;;;;;;;;;;;;;;;17.92;44.40;99349.16;10325067;28;1886;-76
2023/12/28 11:29:56;;;;;;;;;;;;;;;17.91;44.58;99358.00;10326249;28;880;-76
2023/12/28 11:34:52;;;;;;;;;;;;;;;17.90;44.31;99361.59;10332716;28;1096;-75
2023/12/28 11:39:48;;;;;;;;;;;;;;;17.92;44.77;99371.13;10333592;28;1144;-75
2023/12/28 11:44:44;;;;;;;;;;;;;;;17.86;44.73;99352.13;10332757;28;1918;-76
2023/12/28 11:49:40;;;;;;;;;;;;;;;17.89;44.86;99349.31;10332631;28;961;-75
2023/12/28 11:54:36;;;;;;;;;;;;;;;18.01;44.40;99358.41;10333740;28;833;-75
2023/12/28 11:59:32;;;;;;;;;;;;;;;18.05;43.96;99357.31;10332290;28;865;-74
2023/12/28 12:04:28;;;;;;;;;;;;;;;17.96;43.96;99354.22;10332766;28;1917;-75
2023/12/28 12:09:24;;;;;;;;;;;;;;;17.96;44.44;99348.09;10332444;28;969;-75
2023/12/28 12:14:20;;;;;;;;;;;;;;;18.00;44.39;99339.09;10331724;28;872;-74
2023/12/28 12:19:15;;;;;;;;;;;;;;;18.07;44.13;99342.28;10331523;28;825;-76
2023/12/28 12:24:11;;;;;;;;;;;;;;;18.08;44.20;99328.16;10331861;28;1894;-75
2023/12/28 12:29:07;;;;;;;;;;;;;;;18.11;44.36;99330.66;10331409;28;976;-75
2023/12/28 12:34:03;;;;;;;;;;;;;;;18.10;44.25;99318.38;10330982;28;965;-75
2023/12/28 12:38:59;;;;;;;;;;;;;;;18.16;43.95;99326.84;10331217;28;1275;-75
2023/12/28 12:43:56;;;;;;;;;;;;;;;18.22;43.69;99322.19;10329861;28;1969;-74
2023/12/28 12:48:52;;;;;;;;;;;;;;;18.07;43.60;99310.63;10331014;28;880;-74
2023/12/28 12:53:48;;;;;;;;;;;;;;;18.05;44.13;99323.03;10330426;28;897;-75
2023/12/28 12:58:44;;;;;;;;;;;;;;;18.01;44.46;99308.31;10330687;28;766;-75
2023/12/28 13:03:40;;;;;;;;;;;;;;;18.02;43.72;99297.66;10329804;28;1922;-74
2023/12/28 13:08:36;;;;;;;;;;;;;;;18.07;44.34;99297.44;10329704;28;878;-75
2023/12/28 13:13:31;;;;;;;;;;;;;;;18.09;44.07;99298.22;10329485;28;812;-75
2023/12/28 13:18:27;;;;;;;;;;;;;;;18.13;43.74;99291.84;10329905;28;807;-75
2023/12/28 13:23:23;;;;;;;;;;;;;;;18.08;43.76;99292.09;10329265;28;1947;-75
2023/12/28 13:28:19;;;;;;;;;;;;;;;18.08;44.46;99292.09;10328943;28;935;-75
2023/12/28 13:33:15;;;;;;;;;;;;;;;18.10;43.98;99292.88;10328698;28;901;-74
2023/12/28 13:38:11;;;;;;;;;;;;;;;18.01;44.28;99310.94;10328109;28;1430;-76
2023/12/28 13:43:07;;;;;;;;;;;;;;;18.08;43.84;99291.25;10327598;28;1973;-74
2023/12/28 13:48:03;;;;;;;;;;;;;;;18.06;43.71;99287.84;10328279;28;946;-79
2023/12/28 13:52:58;;;;;;;;;;;;;;;17.85;44.17;99284.50;10328512;28;770;-80
2023/12/28 13:57:54;;;;;;;;;;;;;;;17.83;43.73;99284.56;10328355;28;878;-80
2023/12/28 14:02:52;;;;;;;;;;;;;;;17.79;43.91;99279.50;10328330;28;889;-80
2023/12/28 14:07:48;;;;;;;;;;;;;;;17.68;43.99;99278.28;10327347;28;1897;-81
2023/12/28 14:12:44;;;;;;;;;;;;;;;17.77;43.29;99278.75;10326822;28;868;-79
2023/12/28 14:17:40;;;;;;;;;;;;;;;17.70;43.50;99265.84;10327428;28;960;-80
2023/12/28 14:22:36;;;;;;;;;;;;;;;17.66;43.59;99263.47;10326744;28;1319;-79
2023/12/28 14:27:32;;;;;;;;;;;;;;;17.78;42.75;99259.34;10326501;28;1902;-79
2023/12/28 14:32:28;;;;;;;;;;;;;;;17.79;42.79;99255.78;10327023;28;853;-80
2023/12/28 14:37:23;;;;;;;;;;;;;;;17.78;42.37;99268.09;10326886;28;1132;-79
2023/12/28 14:42:19;;;;;;;;;;;;;;;17.74;42.73;99264.78;10325511;28;816;-72
2023/12/28 14:47:15;;;;;;;;;;;;;;;17.69;43.04;99258.88;10326038;28;1906;-75
2023/12/28 14:52:11;;;;;;;;;;;;;;;17.64;43.46;99258.28;10325858;28;786;-75
2023/12/28 14:57:07;;;;;;;;;;;;;;;17.67;43.39;99262.53;10325792;28;895;-75
2023/12/28 15:02:03;;;;;;;;;;;;;;;17.60;43.76;99261.13;10326359;28;797;-78
2023/12/28 15:06:59;;;;;;;;;;;;;;;17.60;43.79;99247.94;10324643;28;1898;-75
2023/12/28 15:11:54;;;;;;;;;;;;;;;17.64;43.76;99245.09;10326046;28;794;-75
2023/12/28 15:16:50;;;;;;;;;;;;;;;17.65;44.04;99253.84;10325328;28;817;-74
2023/12/28 15:21:46;;;;;;;;;;;;;;;17.69;43.88;99255.41;10325892;28;833;-75
2023/12/28 15:26:42;;;;;;;;;;;;;;;17.72;43.73;99261.38;10324838;28;1973;-75
2023/12/28 15:31:38;;;;;;;;;;;;;;;17.71;43.95;99264.06;10324205;28;957;-75
2023/12/28 15:36:34;;;;;;;;;;;;;;;17.72;43.58;99253.47;10324821;28;1291;-74
2023/12/28 15:41:30;;;;;;;;;;;;;;;17.74;43.79;99250.75;10324604;28;857;-76
2023/12/28 15:46:26;;;;;;;;;;;;;;;17.74;43.65;99250.75;10324984;28;1906;-75
2023/12/28 15:51:23;;;;;;;;;;;;;;;17.73;43.76;99252.50;10324435;28;901;-76
2023/12/28 15:56:18;;;;;;;;;;;;;;;17.77;44.09;99236.56;10324832;28;904;-76
2023/12/28 16:01:15;;;;;;;;;;;;;;;17.86;43.61;99234.31;10324821;28;861;-76
2023/12/28 16:06:11;;;;;;;;;;;;;;;17.84;43.67;99245.88;10324633;28;1955;-75
2023/12/28 16:11:07;;;;;;;;;;;;;;;17.82;44.14;99243.34;10324015;28;861;-76
2023/12/28 16:16:03;;;;;;;;;;;;;;;17.87;43.60;99235.19;10325180;28;862;-75
2023/12/28 16:20:59;;;;;;;;;;;;;;;17.87;44.00;99233.41;10331897;28;896;-75
2023/12/28 16:25:55;;;;;;;;;;;;;;;17.85;44.16;99218.59;10331575;28;1973;-76
2023/12/28 16:30:50;;;;;;;;;;;;;;;17.91;44.16;99216.47;10330930;28;755;-77
2023/12/28 16:35:46;;;;;;;;;;;;;;;17.94;44.13;99218.09;10331152;28;1503;-72
2023/12/28 16:40:42;;;;;;;;;;;;;;;17.90;44.28;99211.31;10330543;28;1266;-75
2023/12/28 16:45:38;;;;;;;;;;;;;;;17.96;43.84;99218.88;10330310;28;1938;-75
2023/12/28 16:50:34;;;;;;;;;;;;;;;17.92;44.28;99227.88;10330152;28;768;-76
2023/12/28 16:55:30;;;;;;;;;;;;;;;17.93;44.32;99225.16;10330565;28;782;-76
2023/12/28 17:00:26;;;;;;;;;;;;;;;17.95;44.33;99212.75;10330066;28;902;-76
2023/12/28 17:05:26;;;;;;;;;;;;;;;17.99;43.83;99205.53;10329883;28;1959;-75
2023/12/28 17:10:21;;;;;;;;;;;;;;;17.96;44.28;99203.06;10329514;28;1059;-76
2023/12/28 17:15:17;;;;;;;;;;;;;;;17.95;44.22;99206.66;10330085;28;877;-75
2023/12/28 17:20:13;;;;;;;;;;;;;;;18.05;43.54;99199.06;10329974;28;825;-75
2023/12/28 17:25:09;;;;;;;;;;;;;;;17.96;44.45;99201.28;10329634;28;1906;-75
2023/12/28 17:30:06;;;;;;;;;;;;;;;18.02;44.10;99222.97;10328771;28;822;-75
2023/12/28 17:35:02;;;;;;;;;;;;;;;18.02;43.60;99218.56;10329325;28;884;-76
2023/12/28 17:39:57;;;;;;;;;;;;;;;17.89;44.08;99206.94;10328998;28;1167;-76
2023/12/28 17:44:55;;;;;;;;;;;;;;;17.88;44.17;99207.88;10328839;28;1977;-76
2023/12/28 17:49:51;;;;;;;;;;;;;;;17.91;44.03;99216.47;10328650;28;794;-74
2023/12/28 17:54:47;;;;;;;;;;;;;;;17.92;44.14;99215.56;10328528;28;866;-75
2023/12/28 17:59:42;;;;;;;;;;;;;;;17.98;44.16;99224.09;10327744;28;916;-74
2023/12/28 18:04:38;;;;;;;;;;;;;;;18.02;43.92;99217.72;10327975;28;1897;-74
2023/12/28 18:09:40;;;;;;;;;;;;;;;18.01;43.56;99227.41;10327561;28;862;-75
2023/12/28 18:14:36;;;;;;;;;;;;;;;18.02;43.95;99241.44;10327079;28;865;-75
2023/12/28 18:19:32;;;;;;;;;;;;;;;18.08;43.56;99230.59;10327600;28;784;-75
2023/12/28 18:24:27;;;;;;;;;;;;;;;17.98;44.04;99227.56;10326657;28;1894;-74
2023/12/28 18:29:23;;;;;;;;;;;;;;;18.01;43.76;99222.13;10326570;28;1094;-75
2023/12/28 18:34:19;;;;;;;;;;;;;;;18.13;43.54;99236.44;10326384;28;905;-75
2023/12/28 18:39:15;;;;;;;;;;;;;;;18.00;43.83;99224.84;10325915;28;1285;-75
2023/12/28 18:44:11;;;;;;;;;;;;;;;18.07;44.00;99215.69;10326579;28;1930;-74
2023/12/28 18:49:07;;;;;;;;;;;;;;;18.06;43.92;99206.91;10326034;28;825;-75
2023/12/28 18:54:03;;;;;;;;;;;;;;;18.03;43.78;99224.69;10325893;28;767;-75
2023/12/28 18:58:59;;;;;;;;;;;;;;;18.02;43.83;99223.81;10325803;28;802;-75
2023/12/28 19:03:56;;;;;;;;;;;;;;;18.04;43.76;99221.97;10325548;28;1897;-75
2023/12/28 19:08:52;;;;;;;;;;;;;;;18.06;43.66;99220.09;10326123;28;849;-74
2023/12/28 19:13:49;;;;;;;;;;;;;;;18.07;43.74;99215.69;10325598;28;885;-75
2023/12/28 19:18:45;;;;;;;;;;;;;;;18.09;43.48;99229.66;10325880;28;976;-75
2023/12/28 19:23:41;;;;;;;;;;;;;;;18.05;43.52;99228.97;10325231;28;1902;-75
2023/12/28 19:28:37;;;;;;;;;;;;;;;18.05;43.64;99218.41;10325183;28;874;-75
2023/12/28 19:33:32;;;;;;;;;;;;;;;18.09;43.28;99227.00;10325594;28;837;-75
2023/12/28 19:38:28;;;;;;;;;;;;;;;18.07;43.49;99215.69;10325321;28;1128;-75
2023/12/28 19:43:24;;;;;;;;;;;;;;;18.08;43.72;99215.59;10324761;28;1910;-75
2023/12/28 19:48:20;;;;;;;;;;;;;;;18.08;43.65;99218.25;10325470;28;877;-75
2023/12/28 19:53:18;;;;;;;;;;;;;;;18.13;43.19;99231.16;10328929;28;861;-75
2023/12/28 19:58:14;;;;;;;;;;;;;;;18.05;43.72;99210.50;10332749;28;858;-75
2023/12/28 20:03:09;;;;;;;;;;;;;;;18.11;43.27;99212.81;10332287;28;889;-75
2023/12/28 20:08:05;;;;;;;;;;;;;;;18.09;43.23;99198.84;10331950;28;2311;-75
2023/12/28 20:13:01;;;;;;;;;;;;;;;18.07;43.47;99184.88;10331879;28;766;-78
2023/12/28 20:17:59;;;;;;;;;;;;;;;18.07;43.64;99184.03;10331713;28;892;-75
2023/12/28 20:22:55;;;;;;;;;;;;;;;18.10;43.24;99179.47;10331488;28;779;-75
2023/12/28 20:27:51;;;;;;;;;;;;;;;18.07;43.62;99174.31;10330658;28;1961;-75
2023/12/28 20:32:46;;;;;;;;;;;;;;;18.07;43.70;99174.31;10331129;28;909;-75
2023/12/28 20:37:42;;;;;;;;;;;;;;;18.11;43.07;99182.94;10330747;28;1301;-75
2023/12/28 20:42:38;;;;;;;;;;;;;;;18.14;43.18;99183.63;10330777;28;883;-75
2023/12/28 20:47:34;;;;;;;;;;;;;;;18.08;43.14;99173.41;10330537;28;1918;-75
2023/12/28 20:52:30;;;;;;;;;;;;;;;18.02;43.00;99173.72;10329934;28;912;-75
2023/12/28 20:57:29;;;;;;;;;;;;;;;17.98;43.28;99174.84;10330977;28;863;-74
2023/12/28 21:02:25;;;;;;;;;;;;;;;17.96;43.14;99171.41;10329060;28;778;-74
2023/12/28 21:07:21;;;;;;;;;;;;;;;17.96;43.14;99174.06;10329595;28;1898;-75
2023/12/28 21:12:23;;;;;;;;;;;;;;;17.99;42.87;99179.16;10330497;28;885;-75
2023/12/28 21:17:19;;;;;;;;;;;;;;;17.91;42.98;99169.03;10329543;28;902;-74
2023/12/28 21:22:15;;;;;;;;;;;;;;;17.91;43.18;99170.81;10329311;28;899;-75
2023/12/28 21:27:11;;;;;;;;;;;;;;;17.99;42.87;99173.88;10330188;28;1898;-74
2023/12/28 21:32:06;;;;;;;;;;;;;;;18.00;42.54;99162.44;10329678;28;968;-75
2023/12/28 21:37:02;;;;;;;;;;;;;;;17.95;42.77;99143.38;10328284;28;1179;-75
2023/12/28 21:41:58;;;;;;;;;;;;;;;17.87;42.93;99142.94;10327902;28;900;-74
2023/12/28 21:46:54;;;;;;;;;;;;;;;17.95;42.50;99143.38;10328379;28;1972;-75
2023/12/28 21:51:50;;;;;;;;;;;;;;;17.83;43.22;99118.50;10329390;28;918;-74
2023/12/28 21:56:46;;;;;;;;;;;;;;;17.89;42.77;99141.03;10327777;28;934;-75
2023/12/28 22:01:43;;;;;;;;;;;;;;;17.86;42.55;99141.19;10327691;28;905;-75
2023/12/28 22:06:41;;;;;;;;;;;;;;;17.78;42.84;99133.66;10327413;28;1960;-74
2023/12/28 22:11:37;;;;;;;;;;;;;;;17.79;42.72;99137.16;10327210;28;889;-75
2023/12/28 22:16:33;;;;;;;;;;;;;;;17.75;42.61;99128.56;10326777;28;771;-74
2023/12/28 22:21:29;;;;;;;;;;;;;;;17.75;42.76;99116.22;10327463;28;892;-74
2023/12/28 22:26:25;;;;;;;;;;;;;;;17.70;42.83;99091.06;10326856;28;1957;-75
2023/12/28 22:31:22;;;;;;;;;;;;;;;17.68;43.02;99101.69;10327769;28;887;-75
2023/12/28 22:36:18;;;;;;;;;;;;;;;17.68;42.77;99103.44;10326386;28;1148;-74
2023/12/28 22:41:14;;;;;;;;;;;;;;;17.63;42.95;99093.19;10326285;28;916;-74
2023/12/28 22:46:11;;;;;;;;;;;;;;;17.67;42.62;99096.50;10326689;28;1910;-75
2023/12/28 22:51:10;;;;;;;;;;;;;;;17.63;42.74;99093.19;10325995;28;996;-75
2023/12/28 22:56:06;;;;;;;;;;;;;;;17.65;42.63;99083.38;10326476;28;900;-75
2023/12/28 23:01:03;;;;;;;;;;;;;;;17.69;42.63;99061.22;10326371;28;798;-74
2023/12/28 23:06:00;;;;;;;;;;;;;;;17.67;42.66;99051.69;10326144;28;1894;-75
2023/12/28 23:10:57;;;;;;;;;;;;;;;17.63;42.81;99063.31;10325541;28;881;-74
2023/12/28 23:15:53;;;;;;;;;;;;;;;17.67;42.52;99068.34;10325468;28;854;-75
2023/12/28 23:20:49;;;;;;;;;;;;;;;17.67;42.44;99070.97;10325372;28;771;-75
2023/12/28 23:25:44;;;;;;;;;;;;;;;17.69;42.43;99071.75;10325362;28;1949;-75
2023/12/28 23:30:43;;;;;;;;;;;;;;;17.58;42.89;99066.22;10333889;28;833;-75
2023/12/28 23:35:38;;;;;;;;;;;;;;;17.61;42.68;99065.19;10333668;28;1560;-75
2023/12/28 23:40:34;;;;;;;;;;;;;;;17.61;42.61;99050.25;10333937;28;933;-74
2023/12/28 23:45:30;;;;;;;;;;;;;;;17.70;42.63;99064.69;10332966;28;1910;-75
2023/12/28 23:50:26;;;;;;;;;;;;;;;17.63;42.35;99042.22;10332883;28;818;-74
2023/12/28 23:55:22;;;;;;;;;;;;;;;17.58;42.70;99033.72;10332947;28;948;-75
